sensor_id;sensor_type;location;lat;lon;timestamp;P1;durP1;ratioP1;P2;durP2;ratioP2
59338;SDS011;45117;50.960;5.500;2023-05-07T00:01:20;7.50;;;4.45;;
59338;SDS011;45117;50.960;5.500;2023-05-07T00:03:47;7.97;;;4.38;;
59338;SDS011;45117;50.960;5.500;2023-05-07T00:06:14;6.55;;;4.95;;
59338;SDS011;45117;50.960;5.500;2023-05-07T00:08:41;7.03;;;4.70;;
59338;SDS011;45117;50.960;5.500;2023-05-07T00:11:07;7.70;;;4.95;;
59338;SDS011;45117;50.960;5.500;2023-05-07T00:13:34;7.63;;;4.60;;
59338;SDS011;45117;50.960;5.500;2023-05-07T00:16:01;6.20;;;4.18;;
59338;SDS011;45117;50.960;5.500;2023-05-07T00:18:27;8.65;;;4.68;;
59338;SDS011;45117;50.960;5.500;2023-05-07T00:20:54;9.05;;;5.10;;
59338;SDS011;45117;50.960;5.500;2023-05-07T00:23:22;8.13;;;5.18;;
59338;SDS011;45117;50.960;5.500;2023-05-07T00:25:49;8.55;;;5.25;;
59338;SDS011;45117;50.960;5.500;2023-05-07T00:28:15;9.75;;;5.53;;
59338;SDS011;45117;50.960;5.500;2023-05-07T00:30:42;8.02;;;4.57;;
59338;SDS011;45117;50.960;5.500;2023-05-07T00:33:10;8.93;;;5.32;;
59338;SDS011;45117;50.960;5.500;2023-05-07T00:35:37;7.22;;;4.90;;
59338;SDS011;45117;50.960;5.500;2023-05-07T00:38:03;8.45;;;4.82;;
59338;SDS011;45117;50.960;5.500;2023-05-07T00:40:31;9.10;;;5.68;;
59338;SDS011;45117;50.960;5.500;2023-05-07T00:42:57;7.80;;;5.18;;
59338;SDS011;45117;50.960;5.500;2023-05-07T00:45:25;7.63;;;5.13;;
59338;SDS011;45117;50.960;5.500;2023-05-07T00:47:53;8.60;;;4.85;;
59338;SDS011;45117;50.960;5.500;2023-05-07T00:50:20;7.90;;;5.80;;
59338;SDS011;45117;50.960;5.500;2023-05-07T00:52:47;9.50;;;5.78;;
59338;SDS011;45117;50.960;5.500;2023-05-07T00:55:14;7.32;;;4.57;;
59338;SDS011;45117;50.960;5.500;2023-05-07T00:57:44;9.05;;;5.63;;
59338;SDS011;45117;50.960;5.500;2023-05-07T01:00:11;9.48;;;5.50;;
59338;SDS011;45117;50.960;5.500;2023-05-07T01:02:39;8.45;;;5.68;;
59338;SDS011;45117;50.960;5.500;2023-05-07T01:05:06;7.50;;;5.80;;
59338;SDS011;45117;50.960;5.500;2023-05-07T01:07:35;8.55;;;4.63;;
59338;SDS011;45117;50.960;5.500;2023-05-07T01:10:03;8.82;;;5.95;;
59338;SDS011;45117;50.960;5.500;2023-05-07T01:12:31;7.72;;;4.93;;
59338;SDS011;45117;50.960;5.500;2023-05-07T01:15:00;9.20;;;6.38;;
59338;SDS011;45117;50.960;5.500;2023-05-07T01:17:26;8.98;;;6.15;;
59338;SDS011;45117;50.960;5.500;2023-05-07T01:19:53;10.07;;;6.60;;
59338;SDS011;45117;50.960;5.500;2023-05-07T01:22:26;11.75;;;7.00;;
59338;SDS011;45117;50.960;5.500;2023-05-07T01:24:57;11.30;;;6.65;;
59338;SDS011;45117;50.960;5.500;2023-05-07T01:27:24;11.55;;;7.03;;
59338;SDS011;45117;50.960;5.500;2023-05-07T01:29:51;11.13;;;6.97;;
59338;SDS011;45117;50.960;5.500;2023-05-07T01:32:18;10.73;;;6.55;;
59338;SDS011;45117;50.960;5.500;2023-05-07T01:34:46;10.38;;;6.18;;
59338;SDS011;45117;50.960;5.500;2023-05-07T01:37:15;13.90;;;7.80;;
59338;SDS011;45117;50.960;5.500;2023-05-07T01:39:43;13.60;;;8.15;;
59338;SDS011;45117;50.960;5.500;2023-05-07T01:42:10;11.05;;;7.68;;
59338;SDS011;45117;50.960;5.500;2023-05-07T01:44:38;13.18;;;7.38;;
59338;SDS011;45117;50.960;5.500;2023-05-07T01:47:04;11.25;;;7.07;;
59338;SDS011;45117;50.960;5.500;2023-05-07T01:49:32;12.80;;;7.32;;
59338;SDS011;45117;50.960;5.500;2023-05-07T01:51:59;13.07;;;7.40;;
59338;SDS011;45117;50.960;5.500;2023-05-07T01:54:26;11.50;;;7.10;;
59338;SDS011;45117;50.960;5.500;2023-05-07T01:56:55;10.75;;;6.78;;
59338;SDS011;45117;50.960;5.500;2023-05-07T01:59:22;9.57;;;5.55;;
59338;SDS011;45117;50.960;5.500;2023-05-07T02:01:49;10.57;;;6.55;;
59338;SDS011;45117;50.960;5.500;2023-05-07T02:04:15;14.02;;;7.28;;
59338;SDS011;45117;50.960;5.500;2023-05-07T02:06:42;12.65;;;6.60;;
59338;SDS011;45117;50.960;5.500;2023-05-07T02:09:08;11.73;;;7.40;;
59338;SDS011;45117;50.960;5.500;2023-05-07T02:11:35;11.30;;;7.50;;
59338;SDS011;45117;50.960;5.500;2023-05-07T02:14:03;10.10;;;6.75;;
59338;SDS011;45117;50.960;5.500;2023-05-07T02:16:29;11.60;;;7.00;;
59338;SDS011;45117;50.960;5.500;2023-05-07T02:18:56;12.05;;;7.68;;
59338;SDS011;45117;50.960;5.500;2023-05-07T02:21:23;11.80;;;7.88;;
59338;SDS011;45117;50.960;5.500;2023-05-07T02:23:50;11.60;;;6.80;;
59338;SDS011;45117;50.960;5.500;2023-05-07T02:26:16;13.13;;;7.50;;
59338;SDS011;45117;50.960;5.500;2023-05-07T02:28:44;13.57;;;7.70;;
59338;SDS011;45117;50.960;5.500;2023-05-07T02:31:12;12.60;;;7.75;;
59338;SDS011;45117;50.960;5.500;2023-05-07T02:33:38;10.23;;;5.78;;
59338;SDS011;45117;50.960;5.500;2023-05-07T02:36:05;10.40;;;7.57;;
59338;SDS011;45117;50.960;5.500;2023-05-07T02:38:33;11.68;;;6.82;;
59338;SDS011;45117;50.960;5.500;2023-05-07T02:40:59;9.70;;;6.22;;
59338;SDS011;45117;50.960;5.500;2023-05-07T02:43:26;12.25;;;7.03;;
59338;SDS011;45117;50.960;5.500;2023-05-07T02:45:59;12.48;;;7.03;;
59338;SDS011;45117;50.960;5.500;2023-05-07T02:48:28;12.70;;;7.20;;
59338;SDS011;45117;50.960;5.500;2023-05-07T02:50:54;10.50;;;6.45;;
59338;SDS011;45117;50.960;5.500;2023-05-07T02:53:20;10.77;;;6.35;;
59338;SDS011;45117;50.960;5.500;2023-05-07T02:55:47;11.07;;;6.80;;
59338;SDS011;45117;50.960;5.500;2023-05-07T02:58:13;8.07;;;5.20;;
59338;SDS011;45117;50.960;5.500;2023-05-07T03:00:40;9.18;;;6.63;;
59338;SDS011;45117;50.960;5.500;2023-05-07T03:03:06;11.43;;;6.43;;
59338;SDS011;45117;50.960;5.500;2023-05-07T03:05:34;12.15;;;6.90;;
59338;SDS011;45117;50.960;5.500;2023-05-07T03:08:01;11.88;;;6.70;;
59338;SDS011;45117;50.960;5.500;2023-05-07T03:10:27;11.23;;;6.95;;
59338;SDS011;45117;50.960;5.500;2023-05-07T03:12:54;10.77;;;6.65;;
59338;SDS011;45117;50.960;5.500;2023-05-07T03:15:20;13.98;;;6.97;;
59338;SDS011;45117;50.960;5.500;2023-05-07T03:17:47;12.73;;;6.70;;
59338;SDS011;45117;50.960;5.500;2023-05-07T03:20:14;10.13;;;7.03;;
59338;SDS011;45117;50.960;5.500;2023-05-07T03:22:42;11.32;;;7.05;;
59338;SDS011;45117;50.960;5.500;2023-05-07T03:25:08;12.10;;;6.93;;
59338;SDS011;45117;50.960;5.500;2023-05-07T03:27:36;12.07;;;6.93;;
59338;SDS011;45117;50.960;5.500;2023-05-07T03:30:03;15.13;;;7.50;;
59338;SDS011;45117;50.960;5.500;2023-05-07T03:32:31;13.40;;;7.15;;
59338;SDS011;45117;50.960;5.500;2023-05-07T03:34:57;9.75;;;6.35;;
59338;SDS011;45117;50.960;5.500;2023-05-07T03:37:24;11.77;;;6.75;;
59338;SDS011;45117;50.960;5.500;2023-05-07T03:39:52;11.38;;;7.05;;
59338;SDS011;45117;50.960;5.500;2023-05-07T03:42:18;11.65;;;6.30;;
59338;SDS011;45117;50.960;5.500;2023-05-07T03:44:45;10.50;;;7.25;;
59338;SDS011;45117;50.960;5.500;2023-05-07T03:47:11;10.65;;;6.25;;
59338;SDS011;45117;50.960;5.500;2023-05-07T03:49:39;12.10;;;6.47;;
59338;SDS011;45117;50.960;5.500;2023-05-07T03:52:05;12.50;;;7.22;;
59338;SDS011;45117;50.960;5.500;2023-05-07T03:54:32;12.55;;;6.60;;
59338;SDS011;45117;50.960;5.500;2023-05-07T03:57:00;13.90;;;7.25;;
59338;SDS011;45117;50.960;5.500;2023-05-07T03:59:27;14.23;;;7.30;;
59338;SDS011;45117;50.960;5.500;2023-05-07T04:01:53;11.18;;;7.20;;
59338;SDS011;45117;50.960;5.500;2023-05-07T04:04:20;12.40;;;7.53;;
59338;SDS011;45117;50.960;5.500;2023-05-07T04:06:46;12.32;;;6.97;;
59338;SDS011;45117;50.960;5.500;2023-05-07T04:09:13;13.93;;;7.15;;
59338;SDS011;45117;50.960;5.500;2023-05-07T04:11:39;10.48;;;6.90;;
59338;SDS011;45117;50.960;5.500;2023-05-07T04:14:07;10.02;;;7.18;;
59338;SDS011;45117;50.960;5.500;2023-05-07T04:16:34;11.90;;;7.05;;
59338;SDS011;45117;50.960;5.500;2023-05-07T04:19:00;11.68;;;7.53;;
59338;SDS011;45117;50.960;5.500;2023-05-07T04:21:27;12.48;;;6.95;;
59338;SDS011;45117;50.960;5.500;2023-05-07T04:23:53;11.75;;;6.45;;
59338;SDS011;45117;50.960;5.500;2023-05-07T04:26:20;12.40;;;6.70;;
59338;SDS011;45117;50.960;5.500;2023-05-07T04:28:48;11.35;;;6.40;;
59338;SDS011;45117;50.960;5.500;2023-05-07T04:31:16;10.20;;;6.45;;
59338;SDS011;45117;50.960;5.500;2023-05-07T04:33:42;11.38;;;6.78;;
59338;SDS011;45117;50.960;5.500;2023-05-07T04:36:08;11.73;;;6.60;;
59338;SDS011;45117;50.960;5.500;2023-05-07T04:38:35;14.13;;;6.95;;
59338;SDS011;45117;50.960;5.500;2023-05-07T04:41:02;8.95;;;5.65;;
59338;SDS011;45117;50.960;5.500;2023-05-07T04:43:30;9.02;;;6.25;;
59338;SDS011;45117;50.960;5.500;2023-05-07T04:45:56;10.15;;;6.30;;
59338;SDS011;45117;50.960;5.500;2023-05-07T04:48:24;10.15;;;5.45;;
59338;SDS011;45117;50.960;5.500;2023-05-07T04:50:51;13.88;;;6.78;;
59338;SDS011;45117;50.960;5.500;2023-05-07T04:53:18;11.90;;;7.03;;
59338;SDS011;45117;50.960;5.500;2023-05-07T04:55:44;17.15;;;10.85;;
59338;SDS011;45117;50.960;5.500;2023-05-07T04:58:11;10.52;;;7.32;;
59338;SDS011;45117;50.960;5.500;2023-05-07T05:00:38;7.15;;;5.22;;
59338;SDS011;45117;50.960;5.500;2023-05-07T05:03:05;9.07;;;6.65;;
59338;SDS011;45117;50.960;5.500;2023-05-07T05:05:33;8.82;;;5.43;;
59338;SDS011;45117;50.960;5.500;2023-05-07T05:08:00;10.50;;;6.38;;
59338;SDS011;45117;50.960;5.500;2023-05-07T05:10:27;9.43;;;6.57;;
59338;SDS011;45117;50.960;5.500;2023-05-07T05:12:53;9.65;;;6.43;;
59338;SDS011;45117;50.960;5.500;2023-05-07T05:15:20;8.75;;;6.13;;
59338;SDS011;45117;50.960;5.500;2023-05-07T05:17:46;10.82;;;6.32;;
59338;SDS011;45117;50.960;5.500;2023-05-07T05:20:13;8.90;;;6.30;;
59338;SDS011;45117;50.960;5.500;2023-05-07T05:22:41;9.60;;;7.03;;
59338;SDS011;45117;50.960;5.500;2023-05-07T05:25:08;10.48;;;6.30;;
59338;SDS011;45117;50.960;5.500;2023-05-07T05:27:35;12.85;;;6.75;;
59338;SDS011;45117;50.960;5.500;2023-05-07T05:30:01;12.38;;;6.88;;
59338;SDS011;45117;50.960;5.500;2023-05-07T05:32:28;11.80;;;6.80;;
59338;SDS011;45117;50.960;5.500;2023-05-07T05:34:54;11.05;;;6.38;;
59338;SDS011;45117;50.960;5.500;2023-05-07T05:37:21;9.50;;;6.13;;
59338;SDS011;45117;50.960;5.500;2023-05-07T05:39:49;8.75;;;6.05;;
59338;SDS011;45117;50.960;5.500;2023-05-07T05:42:15;11.02;;;5.35;;
59338;SDS011;45117;50.960;5.500;2023-05-07T05:44:42;9.00;;;5.30;;
59338;SDS011;45117;50.960;5.500;2023-05-07T05:47:08;8.85;;;5.35;;
59338;SDS011;45117;50.960;5.500;2023-05-07T05:49:35;9.35;;;5.22;;
59338;SDS011;45117;50.960;5.500;2023-05-07T05:52:01;10.90;;;5.32;;
59338;SDS011;45117;50.960;5.500;2023-05-07T05:54:28;8.15;;;4.85;;
59338;SDS011;45117;50.960;5.500;2023-05-07T05:56:56;9.65;;;4.93;;
59338;SDS011;45117;50.960;5.500;2023-05-07T05:59:22;6.97;;;4.85;;
59338;SDS011;45117;50.960;5.500;2023-05-07T06:01:49;9.65;;;4.93;;
59338;SDS011;45117;50.960;5.500;2023-05-07T06:04:16;7.45;;;4.80;;
59338;SDS011;45117;50.960;5.500;2023-05-07T06:06:42;7.60;;;4.55;;
59338;SDS011;45117;50.960;5.500;2023-05-07T06:09:09;8.20;;;4.32;;
59338;SDS011;45117;50.960;5.500;2023-05-07T06:11:35;7.78;;;4.15;;
59338;SDS011;45117;50.960;5.500;2023-05-07T06:14:03;5.60;;;3.38;;
59338;SDS011;45117;50.960;5.500;2023-05-07T06:16:29;8.48;;;4.65;;
59338;SDS011;45117;50.960;5.500;2023-05-07T06:18:56;5.00;;;3.65;;
59338;SDS011;45117;50.960;5.500;2023-05-07T06:21:23;7.30;;;3.80;;
59338;SDS011;45117;50.960;5.500;2023-05-07T06:23:49;5.38;;;3.40;;
59338;SDS011;45117;50.960;5.500;2023-05-07T06:26:17;6.97;;;3.88;;
59338;SDS011;45117;50.960;5.500;2023-05-07T06:28:43;6.47;;;3.50;;
59338;SDS011;45117;50.960;5.500;2023-05-07T06:31:15;7.05;;;3.53;;
59338;SDS011;45117;50.960;5.500;2023-05-07T06:33:42;5.22;;;3.13;;
59338;SDS011;45117;50.960;5.500;2023-05-07T06:36:09;5.47;;;3.15;;
59338;SDS011;45117;50.960;5.500;2023-05-07T06:38:36;4.75;;;3.13;;
59338;SDS011;45117;50.960;5.500;2023-05-07T06:41:02;3.63;;;2.60;;
59338;SDS011;45117;50.960;5.500;2023-05-07T06:43:29;4.57;;;2.30;;
59338;SDS011;45117;50.960;5.500;2023-05-07T06:45:55;4.80;;;2.30;;
59338;SDS011;45117;50.960;5.500;2023-05-07T06:48:23;5.82;;;2.67;;
59338;SDS011;45117;50.960;5.500;2023-05-07T06:50:49;4.20;;;2.42;;
59338;SDS011;45117;50.960;5.500;2023-05-07T06:53:16;3.88;;;2.42;;
59338;SDS011;45117;50.960;5.500;2023-05-07T06:55:42;4.20;;;3.03;;
59338;SDS011;45117;50.960;5.500;2023-05-07T06:58:09;7.40;;;3.00;;
59338;SDS011;45117;50.960;5.500;2023-05-07T07:00:35;6.18;;;3.10;;
59338;SDS011;45117;50.960;5.500;2023-05-07T07:03:02;5.20;;;2.47;;
59338;SDS011;45117;50.960;5.500;2023-05-07T07:05:30;5.72;;;2.90;;
59338;SDS011;45117;50.960;5.500;2023-05-07T07:07:56;6.05;;;2.67;;
59338;SDS011;45117;50.960;5.500;2023-05-07T07:10:23;3.95;;;2.45;;
59338;SDS011;45117;50.960;5.500;2023-05-07T07:12:50;5.15;;;2.75;;
59338;SDS011;45117;50.960;5.500;2023-05-07T07:15:17;4.55;;;2.60;;
59338;SDS011;45117;50.960;5.500;2023-05-07T07:17:45;5.72;;;3.10;;
59338;SDS011;45117;50.960;5.500;2023-05-07T07:20:12;2.58;;;2.15;;
59338;SDS011;45117;50.960;5.500;2023-05-07T07:22:40;6.25;;;2.92;;
59338;SDS011;45117;50.960;5.500;2023-05-07T07:25:07;4.47;;;2.47;;
59338;SDS011;45117;50.960;5.500;2023-05-07T07:27:34;6.00;;;3.20;;
59338;SDS011;45117;50.960;5.500;2023-05-07T07:30:02;5.55;;;2.83;;
59338;SDS011;45117;50.960;5.500;2023-05-07T07:32:29;5.50;;;2.60;;
59338;SDS011;45117;50.960;5.500;2023-05-07T07:34:57;4.47;;;2.38;;
59338;SDS011;45117;50.960;5.500;2023-05-07T07:37:23;4.95;;;3.10;;
59338;SDS011;45117;50.960;5.500;2023-05-07T07:39:51;5.60;;;3.20;;
59338;SDS011;45117;50.960;5.500;2023-05-07T07:42:18;6.93;;;3.40;;
59338;SDS011;45117;50.960;5.500;2023-05-07T07:44:44;3.50;;;2.10;;
59338;SDS011;45117;50.960;5.500;2023-05-07T07:47:11;5.45;;;2.67;;
59338;SDS011;45117;50.960;5.500;2023-05-07T07:49:37;4.60;;;2.20;;
59338;SDS011;45117;50.960;5.500;2023-05-07T07:52:04;4.93;;;2.38;;
59338;SDS011;45117;50.960;5.500;2023-05-07T07:54:30;6.20;;;2.80;;
59338;SDS011;45117;50.960;5.500;2023-05-07T07:56:58;3.95;;;2.28;;
59338;SDS011;45117;50.960;5.500;2023-05-07T07:59:26;5.90;;;2.60;;
59338;SDS011;45117;50.960;5.500;2023-05-07T08:01:52;4.30;;;2.08;;
59338;SDS011;45117;50.960;5.500;2023-05-07T08:04:21;4.68;;;2.45;;
59338;SDS011;45117;50.960;5.500;2023-05-07T08:06:48;4.80;;;2.38;;
59338;SDS011;45117;50.960;5.500;2023-05-07T08:09:15;4.75;;;3.20;;
59338;SDS011;45117;50.960;5.500;2023-05-07T08:11:42;7.40;;;3.22;;
59338;SDS011;45117;50.960;5.500;2023-05-07T08:14:09;5.10;;;3.45;;
59338;SDS011;45117;50.960;5.500;2023-05-07T08:16:37;6.38;;;2.92;;
59338;SDS011;45117;50.960;5.500;2023-05-07T08:19:03;6.15;;;2.92;;
59338;SDS011;45117;50.960;5.500;2023-05-07T08:21:30;3.65;;;2.33;;
59338;SDS011;45117;50.960;5.500;2023-05-07T08:23:56;4.40;;;2.95;;
59338;SDS011;45117;50.960;5.500;2023-05-07T08:26:23;4.70;;;2.63;;
59338;SDS011;45117;50.960;5.500;2023-05-07T08:28:49;5.65;;;2.83;;
59338;SDS011;45117;50.960;5.500;2023-05-07T08:31:17;4.22;;;2.30;;
59338;SDS011;45117;50.960;5.500;2023-05-07T08:33:44;4.38;;;2.20;;
59338;SDS011;45117;50.960;5.500;2023-05-07T08:36:10;5.28;;;2.35;;
59338;SDS011;45117;50.960;5.500;2023-05-07T08:38:37;3.75;;;2.38;;
59338;SDS011;45117;50.960;5.500;2023-05-07T08:41:05;8.30;;;4.45;;
59338;SDS011;45117;50.960;5.500;2023-05-07T08:43:32;3.97;;;2.13;;
59338;SDS011;45117;50.960;5.500;2023-05-07T08:46:02;5.18;;;2.20;;
59338;SDS011;45117;50.960;5.500;2023-05-07T08:48:31;3.28;;;2.05;;
59338;SDS011;45117;50.960;5.500;2023-05-07T08:50:58;4.30;;;2.88;;
59338;SDS011;45117;50.960;5.500;2023-05-07T08:53:25;4.25;;;1.80;;
59338;SDS011;45117;50.960;5.500;2023-05-07T08:55:51;6.47;;;2.45;;
59338;SDS011;45117;50.960;5.500;2023-05-07T08:58:19;4.25;;;1.90;;
59338;SDS011;45117;50.960;5.500;2023-05-07T09:00:45;3.53;;;1.88;;
59338;SDS011;45117;50.960;5.500;2023-05-07T09:03:12;5.82;;;1.70;;
59338;SDS011;45117;50.960;5.500;2023-05-07T09:05:40;5.13;;;1.63;;
59338;SDS011;45117;50.960;5.500;2023-05-07T09:08:08;4.15;;;1.60;;
59338;SDS011;45117;50.960;5.500;2023-05-07T09:10:35;5.50;;;1.98;;
59338;SDS011;45117;50.960;5.500;2023-05-07T09:13:02;5.88;;;1.65;;
59338;SDS011;45117;50.960;5.500;2023-05-07T09:15:28;4.72;;;1.63;;
59338;SDS011;45117;50.960;5.500;2023-05-07T09:17:58;6.22;;;2.53;;
59338;SDS011;45117;50.960;5.500;2023-05-07T09:20:26;5.18;;;1.75;;
59338;SDS011;45117;50.960;5.500;2023-05-07T09:22:56;3.72;;;2.15;;
59338;SDS011;45117;50.960;5.500;2023-05-07T09:25:27;5.68;;;1.90;;
59338;SDS011;45117;50.960;5.500;2023-05-07T09:27:54;4.20;;;1.73;;
59338;SDS011;45117;50.960;5.500;2023-05-07T09:30:21;3.92;;;2.20;;
59338;SDS011;45117;50.960;5.500;2023-05-07T09:32:47;6.20;;;2.38;;
59338;SDS011;45117;50.960;5.500;2023-05-07T09:35:14;4.22;;;2.25;;
59338;SDS011;45117;50.960;5.500;2023-05-07T09:37:41;6.07;;;3.55;;
59338;SDS011;45117;50.960;5.500;2023-05-07T09:40:10;6.10;;;2.45;;
59338;SDS011;45117;50.960;5.500;2023-05-07T09:42:46;5.68;;;2.65;;
59338;SDS011;45117;50.960;5.500;2023-05-07T09:45:14;4.10;;;1.60;;
59338;SDS011;45117;50.960;5.500;2023-05-07T09:47:41;4.88;;;2.15;;
59338;SDS011;45117;50.960;5.500;2023-05-07T09:50:10;6.10;;;2.13;;
59338;SDS011;45117;50.960;5.500;2023-05-07T09:52:39;4.07;;;1.70;;
59338;SDS011;45117;50.960;5.500;2023-05-07T09:55:07;3.75;;;1.90;;
59338;SDS011;45117;50.960;5.500;2023-05-07T09:57:35;6.05;;;2.00;;
59338;SDS011;45117;50.960;5.500;2023-05-07T10:00:02;4.53;;;2.28;;
59338;SDS011;45117;50.960;5.500;2023-05-07T10:02:30;6.60;;;2.70;;
59338;SDS011;45117;50.960;5.500;2023-05-07T10:04:59;5.30;;;2.00;;
59338;SDS011;45117;50.960;5.500;2023-05-07T10:07:26;4.93;;;1.83;;
59338;SDS011;45117;50.960;5.500;2023-05-07T10:09:53;4.22;;;2.15;;
59338;SDS011;45117;50.960;5.500;2023-05-07T10:12:21;3.75;;;2.00;;
59338;SDS011;45117;50.960;5.500;2023-05-07T10:14:50;3.65;;;2.15;;
59338;SDS011;45117;50.960;5.500;2023-05-07T10:17:18;5.60;;;2.20;;
59338;SDS011;45117;50.960;5.500;2023-05-07T10:19:46;4.45;;;2.50;;
59338;SDS011;45117;50.960;5.500;2023-05-07T10:22:13;6.35;;;2.75;;
59338;SDS011;45117;50.960;5.500;2023-05-07T10:24:40;6.70;;;3.13;;
59338;SDS011;45117;50.960;5.500;2023-05-07T10:27:09;6.03;;;2.60;;
59338;SDS011;45117;50.960;5.500;2023-05-07T10:29:43;6.00;;;2.55;;
59338;SDS011;45117;50.960;5.500;2023-05-07T10:32:25;6.38;;;3.38;;
59338;SDS011;45117;50.960;5.500;2023-05-07T10:35:00;5.25;;;3.03;;
59338;SDS011;45117;50.960;5.500;2023-05-07T10:37:29;6.80;;;3.70;;
59338;SDS011;45117;50.960;5.500;2023-05-07T10:39:56;6.10;;;3.45;;
59338;SDS011;45117;50.960;5.500;2023-05-07T10:42:23;9.55;;;3.70;;
59338;SDS011;45117;50.960;5.500;2023-05-07T10:44:49;7.65;;;3.30;;
59338;SDS011;45117;50.960;5.500;2023-05-07T10:47:16;7.05;;;3.55;;
59338;SDS011;45117;50.960;5.500;2023-05-07T10:52:44;7.78;;;3.42;;
59338;SDS011;45117;50.960;5.500;2023-05-07T10:55:20;11.07;;;4.10;;
59338;SDS011;45117;50.960;5.500;2023-05-07T10:57:50;7.53;;;3.55;;
59338;SDS011;45117;50.960;5.500;2023-05-07T11:03:09;8.50;;;3.65;;
59338;SDS011;45117;50.960;5.500;2023-05-07T11:05:35;5.00;;;2.85;;
59338;SDS011;45117;50.960;5.500;2023-05-07T11:08:04;10.20;;;4.15;;
59338;SDS011;45117;50.960;5.500;2023-05-07T11:10:47;7.75;;;4.25;;
59338;SDS011;45117;50.960;5.500;2023-05-07T11:13:15;7.45;;;4.03;;
59338;SDS011;45117;50.960;5.500;2023-05-07T11:15:43;10.48;;;4.43;;
59338;SDS011;45117;50.960;5.500;2023-05-07T11:18:10;9.43;;;4.28;;
59338;SDS011;45117;50.960;5.500;2023-05-07T11:20:51;8.82;;;4.22;;
59338;SDS011;45117;50.960;5.500;2023-05-07T11:26:46;11.93;;;4.95;;
59338;SDS011;45117;50.960;5.500;2023-05-07T11:29:14;8.23;;;4.60;;
59338;SDS011;45117;50.960;5.500;2023-05-07T11:31:42;9.50;;;4.95;;
59338;SDS011;45117;50.960;5.500;2023-05-07T11:34:09;8.30;;;4.20;;
59338;SDS011;45117;50.960;5.500;2023-05-07T11:36:41;12.50;;;5.15;;
59338;SDS011;45117;50.960;5.500;2023-05-07T11:39:28;10.75;;;4.78;;
59338;SDS011;45117;50.960;5.500;2023-05-07T11:41:58;9.35;;;4.97;;
59338;SDS011;45117;50.960;5.500;2023-05-07T11:44:24;7.95;;;4.47;;
59338;SDS011;45117;50.960;5.500;2023-05-07T11:46:51;8.82;;;4.20;;
59338;SDS011;45117;50.960;5.500;2023-05-07T11:49:17;8.30;;;3.83;;
59338;SDS011;45117;50.960;5.500;2023-05-07T11:51:44;9.25;;;3.60;;
59338;SDS011;45117;50.960;5.500;2023-05-07T11:54:11;10.02;;;4.18;;
59338;SDS011;45117;50.960;5.500;2023-05-07T11:56:42;8.30;;;3.75;;
59338;SDS011;45117;50.960;5.500;2023-05-07T11:59:11;8.80;;;4.32;;
59338;SDS011;45117;50.960;5.500;2023-05-07T12:01:37;10.80;;;4.28;;
59338;SDS011;45117;50.960;5.500;2023-05-07T12:04:04;7.45;;;3.28;;
59338;SDS011;45117;50.960;5.500;2023-05-07T12:06:31;5.50;;;2.83;;
59338;SDS011;45117;50.960;5.500;2023-05-07T12:09:01;8.02;;;3.25;;
59338;SDS011;45117;50.960;5.500;2023-05-07T12:11:29;6.82;;;3.30;;
59338;SDS011;45117;50.960;5.500;2023-05-07T12:13:55;6.47;;;2.72;;
59338;SDS011;45117;50.960;5.500;2023-05-07T12:16:23;5.88;;;2.38;;
59338;SDS011;45117;50.960;5.500;2023-05-07T12:18:50;6.95;;;2.42;;
59338;SDS011;45117;50.960;5.500;2023-05-07T12:21:17;6.50;;;2.63;;
59338;SDS011;45117;50.960;5.500;2023-05-07T12:23:44;5.32;;;2.25;;
59338;SDS011;45117;50.960;5.500;2023-05-07T12:26:12;6.50;;;1.92;;
59338;SDS011;45117;50.960;5.500;2023-05-07T12:28:39;8.98;;;2.75;;
59338;SDS011;45117;50.960;5.500;2023-05-07T12:31:05;6.07;;;2.00;;
59338;SDS011;45117;50.960;5.500;2023-05-07T12:33:34;7.82;;;2.70;;
59338;SDS011;45117;50.960;5.500;2023-05-07T12:36:02;7.50;;;2.63;;
59338;SDS011;45117;50.960;5.500;2023-05-07T12:38:34;6.45;;;2.20;;
59338;SDS011;45117;50.960;5.500;2023-05-07T12:41:02;5.47;;;2.50;;
59338;SDS011;45117;50.960;5.500;2023-05-07T12:43:28;6.68;;;2.33;;
59338;SDS011;45117;50.960;5.500;2023-05-07T12:45:56;7.60;;;2.53;;
59338;SDS011;45117;50.960;5.500;2023-05-07T12:48:25;5.18;;;2.17;;
59338;SDS011;45117;50.960;5.500;2023-05-07T12:50:54;4.65;;;2.25;;
59338;SDS011;45117;50.960;5.500;2023-05-07T12:53:21;6.10;;;2.33;;
59338;SDS011;45117;50.960;5.500;2023-05-07T12:55:50;4.28;;;2.08;;
59338;SDS011;45117;50.960;5.500;2023-05-07T12:58:18;6.65;;;2.60;;
59338;SDS011;45117;50.960;5.500;2023-05-07T13:00:47;7.32;;;3.28;;
59338;SDS011;45117;50.960;5.500;2023-05-07T13:03:20;6.72;;;2.83;;
59338;SDS011;45117;50.960;5.500;2023-05-07T13:05:47;5.13;;;2.72;;
59338;SDS011;45117;50.960;5.500;2023-05-07T13:08:24;5.72;;;3.10;;
59338;SDS011;45117;50.960;5.500;2023-05-07T13:10:51;7.68;;;2.88;;
59338;SDS011;45117;50.960;5.500;2023-05-07T13:13:18;6.47;;;2.53;;
59338;SDS011;45117;50.960;5.500;2023-05-07T13:15:45;4.53;;;2.10;;
59338;SDS011;45117;50.960;5.500;2023-05-07T13:18:11;6.07;;;2.53;;
59338;SDS011;45117;50.960;5.500;2023-05-07T13:20:38;7.38;;;2.30;;
59338;SDS011;45117;50.960;5.500;2023-05-07T13:23:05;4.18;;;1.70;;
59338;SDS011;45117;50.960;5.500;2023-05-07T13:25:33;5.57;;;1.90;;
59338;SDS011;45117;50.960;5.500;2023-05-07T13:28:00;4.85;;;1.73;;
59338;SDS011;45117;50.960;5.500;2023-05-07T13:30:27;5.53;;;1.90;;
59338;SDS011;45117;50.960;5.500;2023-05-07T13:32:55;4.50;;;1.80;;
59338;SDS011;45117;50.960;5.500;2023-05-07T13:35:22;5.10;;;2.20;;
59338;SDS011;45117;50.960;5.500;2023-05-07T13:37:48;4.70;;;2.00;;
59338;SDS011;45117;50.960;5.500;2023-05-07T13:40:15;3.25;;;1.85;;
59338;SDS011;45117;50.960;5.500;2023-05-07T13:42:43;7.28;;;2.10;;
59338;SDS011;45117;50.960;5.500;2023-05-07T13:45:09;4.40;;;1.80;;
59338;SDS011;45117;50.960;5.500;2023-05-07T13:47:39;5.82;;;1.73;;
59338;SDS011;45117;50.960;5.500;2023-05-07T13:50:06;5.93;;;2.08;;
59338;SDS011;45117;50.960;5.500;2023-05-07T13:52:33;4.40;;;1.92;;
59338;SDS011;45117;50.960;5.500;2023-05-07T13:55:00;5.07;;;1.73;;
59338;SDS011;45117;50.960;5.500;2023-05-07T13:57:26;4.07;;;1.40;;
59338;SDS011;45117;50.960;5.500;2023-05-07T13:59:54;4.47;;;1.55;;
59338;SDS011;45117;50.960;5.500;2023-05-07T14:02:20;5.63;;;2.40;;
59338;SDS011;45117;50.960;5.500;2023-05-07T14:04:47;4.93;;;1.83;;
59338;SDS011;45117;50.960;5.500;2023-05-07T14:07:13;4.50;;;1.55;;
59338;SDS011;45117;50.960;5.500;2023-05-07T14:09:40;3.55;;;1.77;;
59338;SDS011;45117;50.960;5.500;2023-05-07T14:12:06;6.22;;;1.70;;
59338;SDS011;45117;50.960;5.500;2023-05-07T14:14:33;5.32;;;1.50;;
59338;SDS011;45117;50.960;5.500;2023-05-07T14:17:01;4.70;;;1.55;;
59338;SDS011;45117;50.960;5.500;2023-05-07T14:19:27;3.45;;;1.70;;
59338;SDS011;45117;50.960;5.500;2023-05-07T14:21:54;3.88;;;1.40;;
59338;SDS011;45117;50.960;5.500;2023-05-07T14:24:21;3.92;;;1.50;;
59338;SDS011;45117;50.960;5.500;2023-05-07T14:26:47;4.03;;;1.50;;
59338;SDS011;45117;50.960;5.500;2023-05-07T14:29:14;4.75;;;1.60;;
59338;SDS011;45117;50.960;5.500;2023-05-07T14:31:43;4.82;;;2.08;;
59338;SDS011;45117;50.960;5.500;2023-05-07T14:34:12;5.75;;;1.60;;
59338;SDS011;45117;50.960;5.500;2023-05-07T14:36:38;3.90;;;1.90;;
59338;SDS011;45117;50.960;5.500;2023-05-07T14:39:04;6.47;;;2.33;;
59338;SDS011;45117;50.960;5.500;2023-05-07T14:41:31;5.50;;;1.80;;
59338;SDS011;45117;50.960;5.500;2023-05-07T14:43:58;5.10;;;1.75;;
59338;SDS011;45117;50.960;5.500;2023-05-07T14:46:24;4.68;;;1.60;;
59338;SDS011;45117;50.960;5.500;2023-05-07T14:48:51;6.53;;;2.30;;
59338;SDS011;45117;50.960;5.500;2023-05-07T14:51:19;7.68;;;1.98;;
59338;SDS011;45117;50.960;5.500;2023-05-07T14:53:46;3.78;;;1.83;;